createdAt,value
2018-12-08T00:02:01.918Z,97596.48
2018-12-08T00:04:31.088Z,97597.29
2018-12-08T00:07:00.777Z,97607.59
2018-12-08T00:09:29.910Z,97603.62
2018-12-08T00:11:59.120Z,97604.44
2018-12-08T00:14:28.788Z,97619.05
2018-12-08T00:16:57.900Z,97614.70
2018-12-08T00:19:27.204Z,97631.36
2018-12-08T00:21:56.280Z,97632.66
2018-12-08T00:24:25.657Z,97656.72
2018-12-08T00:26:54.821Z,97674.67
2018-12-08T00:29:23.968Z,97670.49
2018-12-08T00:31:53.112Z,97696.69
2018-12-08T00:34:22.537Z,97694.45
2018-12-08T00:36:51.976Z,97709.00
2018-12-08T00:39:21.581Z,97686.94
2018-12-08T00:41:50.829Z,97690.38
2018-12-08T00:44:20.745Z,97688.22
2018-12-08T00:46:49.899Z,97695.86
2018-12-08T00:49:19.160Z,97698.09
2018-12-08T00:51:48.246Z,97699.67
2018-12-08T00:54:18.402Z,97710.14
2018-12-08T00:56:47.795Z,97709.29
2018-12-08T00:59:17.457Z,97705.84
2018-12-08T01:01:46.724Z,97705.42
2018-12-08T01:04:15.875Z,97709.38
2018-12-08T01:06:44.968Z,97720.73
2018-12-08T01:09:14.377Z,97723.08
2018-12-08T01:11:43.629Z,97726.85
2018-12-08T01:14:13.034Z,97728.98
2018-12-08T01:16:42.237Z,97732.48
2018-12-08T01:19:11.345Z,97737.44
2018-12-08T01:21:41.180Z,97738.42
2018-12-08T01:24:10.285Z,97753.41
2018-12-08T01:26:40.116Z,97734.23
2018-12-08T01:29:09.508Z,97761.04
2018-12-08T01:31:39.108Z,97754.61
2018-12-08T01:34:08.376Z,97755.61
2018-12-08T01:36:37.547Z,97757.11
2018-12-08T01:39:08.374Z,97751.95
2018-12-08T01:41:37.503Z,97757.52
2018-12-08T01:44:07.055Z,97752.51
2018-12-08T01:46:36.211Z,97748.35
2018-12-08T01:49:05.408Z,97764.73
2018-12-08T01:51:34.620Z,97755.80
2018-12-08T01:54:04.269Z,97765.64
2018-12-08T01:56:33.507Z,97766.09
2018-12-08T01:59:02.783Z,97766.58
2018-12-08T02:01:32.217Z,97770.09
2018-12-08T02:04:01.505Z,97765.99
2018-12-08T02:06:31.121Z,97764.72
2018-12-08T02:09:00.519Z,97764.72
2018-12-08T02:11:29.676Z,97757.96
2018-12-08T02:13:59.390Z,97757.16
2018-12-08T02:16:28.487Z,97755.09
2018-12-08T02:18:57.627Z,97761.38
2018-12-08T02:21:26.797Z,97769.84
2018-12-08T02:23:56.006Z,97768.92
2018-12-08T02:26:27.503Z,97767.84
2018-12-08T02:28:56.580Z,97767.22
2018-12-08T02:31:25.752Z,97768.95
2018-12-08T02:33:55.083Z,97759.22
2018-12-08T02:36:24.153Z,97763.45
2018-12-08T02:38:53.309Z,97767.41
2018-12-08T02:41:22.453Z,97760.16
2018-12-08T02:43:51.640Z,97761.27
2018-12-08T02:46:21.340Z,97767.41
2018-12-08T02:48:50.420Z,97761.41
2018-12-08T02:51:19.892Z,97766.92
2018-12-08T02:53:49.114Z,97772.73
2018-12-08T02:56:18.795Z,97765.92
2018-12-08T02:58:47.864Z,97768.27
2018-12-08T03:01:17.206Z,97761.02
2018-12-08T03:03:46.371Z,97780.70
2018-12-08T03:06:15.467Z,97784.84
2018-12-08T03:08:44.656Z,97779.35
2018-12-08T03:11:15.247Z,97780.76
2018-12-08T03:13:44.389Z,97784.06
2018-12-08T03:16:13.502Z,97782.53
2018-12-08T03:18:42.608Z,97786.97
2018-12-08T03:21:11.713Z,97778.47
2018-12-08T03:23:40.926Z,97783.81
2018-12-08T03:26:10.143Z,97789.78
2018-12-08T03:28:39.577Z,97793.36
2018-12-08T03:31:08.837Z,97788.46
2018-12-08T03:33:38.003Z,97791.96
2018-12-08T03:36:07.909Z,97788.98
2018-12-08T03:38:37.180Z,97792.63
2018-12-08T03:41:06.721Z,97794.82
2018-12-08T03:43:37.609Z,97794.52
2018-12-08T03:46:06.723Z,97787.88
2018-12-08T03:48:35.876Z,97783.80
2018-12-08T03:51:06.632Z,97783.14
2018-12-08T03:53:36.831Z,97783.02
2018-12-08T03:56:06.115Z,97786.32
2018-12-08T03:58:35.261Z,97789.15
2018-12-08T04:01:04.549Z,97790.88
2018-12-08T04:03:34.628Z,97788.69
2018-12-08T04:06:04.397Z,97791.70
2018-12-08T04:08:33.628Z,97791.55
2018-12-08T04:11:02.822Z,97797.37
2018-12-08T04:13:32.488Z,97797.06
2018-12-08T04:16:01.629Z,97797.22
2018-12-08T04:18:30.850Z,97801.80
2018-12-08T04:21:00.120Z,97793.60
2018-12-08T04:23:29.792Z,97796.11
2018-12-08T04:25:59.644Z,97805.27
2018-12-08T04:28:28.762Z,97796.88
2018-12-08T04:30:57.907Z,97796.70
2018-12-08T04:33:27.051Z,97790.22
2018-12-08T04:35:56.186Z,97794.59
2018-12-08T04:38:25.396Z,97781.51
2018-12-08T04:40:54.537Z,97783.34
2018-12-08T04:43:23.655Z,97780.97
2018-12-08T04:45:53.164Z,97785.09
2018-12-08T04:48:22.285Z,97762.98
2018-12-08T04:50:51.416Z,97781.78
2018-12-08T04:53:20.631Z,97776.25
2018-12-08T04:55:50.016Z,97777.21
2018-12-08T04:58:19.250Z,97782.77
2018-12-08T05:00:48.680Z,97773.45
2018-12-08T05:03:18.469Z,97778.95
2018-12-08T05:05:47.599Z,97775.92
2018-12-08T05:08:16.855Z,97789.36
2018-12-08T05:10:46.692Z,97784.36
2018-12-08T05:13:16.573Z,97793.86
2018-12-08T05:15:45.704Z,97804.89
2018-12-08T05:18:14.865Z,97809.95
2018-12-08T05:20:44.078Z,97806.79
2018-12-08T05:23:13.667Z,97797.42
2018-12-08T05:25:42.939Z,97788.70
2018-12-08T05:28:12.220Z,97788.13
2018-12-08T05:30:41.845Z,97790.19
2018-12-08T05:33:10.984Z,97799.53
2018-12-08T05:35:40.550Z,97807.91
2018-12-08T05:38:09.915Z,97805.40
2018-12-08T05:40:39.059Z,97806.84
2018-12-08T05:43:08.354Z,97801.61
2018-12-08T05:45:37.916Z,97806.54
2018-12-08T05:48:07.530Z,97799.89
2018-12-08T05:50:36.796Z,97796.91
2018-12-08T05:53:06.272Z,97817.09
2018-12-08T05:55:36.015Z,97809.84
2018-12-08T05:58:05.213Z,97809.20
2018-12-08T06:00:35.075Z,97815.84
2018-12-08T06:03:04.199Z,97824.05
2018-12-08T06:05:33.344Z,97822.92
2018-12-08T06:08:02.464Z,97823.88
2018-12-08T06:10:31.680Z,97834.30
2018-12-08T06:13:01.351Z,97831.45
2018-12-08T06:15:30.500Z,97838.25
2018-12-08T06:17:59.785Z,97835.24
2018-12-08T06:20:28.993Z,97840.27
2018-12-08T06:22:58.533Z,97840.42
2018-12-08T06:25:33.113Z,97849.10
2018-12-08T06:28:25.289Z,97853.84
2018-12-08T06:30:54.999Z,97840.92
2018-12-08T06:33:24.148Z,97841.40
2018-12-08T06:35:53.520Z,97837.12
2018-12-08T06:38:22.682Z,97831.30
2018-12-08T06:40:51.872Z,97837.44
2018-12-08T06:43:21.892Z,97831.63
2018-12-08T06:45:51.081Z,97834.75
2018-12-08T06:48:20.296Z,97843.59
2018-12-08T06:50:49.523Z,97840.74
2018-12-08T06:53:18.657Z,97843.13
2018-12-08T06:55:47.907Z,97840.92
2018-12-08T06:58:17.100Z,97850.20
2018-12-08T07:00:47.868Z,97851.00
2018-12-08T07:03:17.032Z,97850.84
2018-12-08T07:05:52.764Z,97844.69
2018-12-08T07:08:22.479Z,97844.86
2018-12-08T07:10:52.477Z,97832.23
2018-12-08T07:13:21.619Z,97831.45
2018-12-08T07:15:50.755Z,97835.23
2018-12-08T07:18:19.875Z,97827.83
2018-12-08T07:20:49.076Z,97831.92
2018-12-08T07:23:18.382Z,97826.41
2018-12-08T07:25:47.501Z,97816.30
2018-12-08T07:28:16.860Z,97821.97
2018-12-08T07:30:46.057Z,97819.16
2018-12-08T07:33:15.175Z,97832.38
2018-12-08T07:35:44.617Z,97822.13
2018-12-08T07:38:13.791Z,97822.91
2018-12-08T07:40:43.108Z,97818.15
2018-12-08T07:43:12.304Z,97816.09
2018-12-08T07:45:42.056Z,97824.74
2018-12-08T07:48:11.284Z,97818.88
2018-12-08T07:50:40.428Z,97807.94
2018-12-08T07:53:09.587Z,97807.00
2018-12-08T07:55:38.727Z,97810.44
2018-12-08T07:58:08.564Z,97800.66
2018-12-08T08:00:37.917Z,97808.17
2018-12-08T08:03:07.237Z,97812.63
2018-12-08T08:05:36.613Z,97810.07
2018-12-08T08:08:05.763Z,97803.56
2018-12-08T08:10:34.870Z,97797.53
2018-12-08T08:13:03.999Z,97803.62
2018-12-08T08:15:33.241Z,97793.84
2018-12-08T08:18:02.531Z,97784.36
2018-12-08T08:20:31.694Z,97777.80
2018-12-08T08:23:00.948Z,97771.77
2018-12-08T08:25:30.069Z,97767.95
2018-12-08T08:27:59.205Z,97759.78
2018-12-08T08:30:28.392Z,97773.73
2018-12-08T08:32:57.540Z,97780.64
2018-12-08T08:35:26.744Z,97787.43
2018-12-08T08:37:55.883Z,97786.25
2018-12-08T08:40:25.020Z,97785.82
2018-12-08T08:42:54.168Z,97781.74
2018-12-08T08:45:23.857Z,97778.52
2018-12-08T08:47:52.983Z,97784.91
2018-12-08T08:50:22.700Z,97784.97
2018-12-08T08:52:51.836Z,97775.77
2018-12-08T08:55:20.970Z,97777.53
2018-12-08T08:57:50.745Z,97777.59
2018-12-08T09:00:19.932Z,97771.95
2018-12-08T09:02:49.096Z,97763.73
2018-12-08T09:05:18.221Z,97769.91
2018-12-08T09:07:47.383Z,97768.37
2018-12-08T09:10:16.632Z,97764.84
2018-12-08T09:12:45.841Z,97767.01
2018-12-08T09:15:15.014Z,97749.06
2018-12-08T09:17:44.375Z,97750.59
2018-12-08T09:20:13.693Z,97759.69
2018-12-08T09:22:43.487Z,97766.75
2018-12-08T09:25:12.886Z,97763.08
2018-12-08T09:27:44.319Z,97752.58
2018-12-08T09:30:13.804Z,97761.13
2018-12-08T09:32:43.060Z,97763.31
2018-12-08T09:35:12.249Z,97754.66
2018-12-08T09:37:43.023Z,97748.62
2018-12-08T09:40:12.146Z,97738.47
2018-12-08T09:42:41.459Z,97739.03
2018-12-08T09:45:10.844Z,97723.08
2018-12-08T09:47:40.003Z,97730.52
2018-12-08T09:50:09.336Z,97708.13
2018-12-08T09:52:39.200Z,97713.27
2018-12-08T09:55:08.484Z,97712.58
2018-12-08T09:57:38.100Z,97713.55
2018-12-08T10:00:08.128Z,97702.58
2018-12-08T10:02:38.100Z,97700.73
2018-12-08T10:05:07.924Z,97710.50
2018-12-08T10:07:37.061Z,97700.36
2018-12-08T10:10:07.790Z,97698.41
2018-12-08T10:12:36.912Z,97690.97
2018-12-08T10:15:06.704Z,97698.07
2018-12-08T10:17:36.147Z,97690.34
2018-12-08T10:20:06.638Z,97694.05
2018-12-08T10:22:35.856Z,97683.59
2018-12-08T10:25:06.368Z,97682.33
2018-12-08T10:27:35.593Z,97686.10
2018-12-08T10:30:06.189Z,97678.91
2018-12-08T10:32:35.320Z,97675.48
2018-12-08T10:35:10.182Z,97673.56
2018-12-08T10:37:40.416Z,97668.84
2018-12-08T10:40:10.913Z,97663.86
2018-12-08T10:42:40.040Z,97674.42
2018-12-08T10:45:10.653Z,97679.27
2018-12-08T10:47:39.796Z,97678.44
2018-12-08T10:50:11.939Z,97678.56
2018-12-08T10:52:41.160Z,97665.14
2018-12-08T10:55:10.422Z,97673.78
2018-12-08T10:57:39.576Z,97681.88
2018-12-08T11:00:13.795Z,97697.88
2018-12-08T11:05:33.771Z,97667.01
2018-12-08T11:08:02.898Z,97643.66
2018-12-08T11:10:32.099Z,97657.64
2018-12-08T11:13:01.231Z,97660.25
2018-12-08T11:15:30.412Z,97674.48
2018-12-08T11:17:59.571Z,97659.83
2018-12-08T11:20:28.806Z,97654.25
2018-12-08T11:22:57.912Z,97656.78
2018-12-08T11:25:27.019Z,97664.42
2018-12-08T11:27:56.154Z,97662.62
2018-12-08T11:30:27.046Z,97654.45
2018-12-08T11:32:56.358Z,97661.20
2018-12-08T11:35:25.476Z,97654.13
2018-12-08T11:37:55.720Z,97657.66
2018-12-08T11:40:24.855Z,97643.97
2018-12-08T11:42:53.991Z,97659.03
2018-12-08T11:45:23.353Z,97650.33
2018-12-08T11:47:52.675Z,97646.22
2018-12-08T11:50:21.880Z,97642.33
2018-12-08T11:52:51.032Z,97643.55
2018-12-08T11:55:20.249Z,97635.70
2018-12-08T11:57:49.441Z,97635.04
2018-12-08T12:00:18.719Z,97649.63
2018-12-08T12:02:48.184Z,97638.13
2018-12-08T12:05:17.699Z,97633.13
2018-12-08T12:07:46.909Z,97631.13
2018-12-08T12:10:22.209Z,97643.17
2018-12-08T12:12:54.629Z,97629.78
2018-12-08T12:15:23.925Z,97642.24
2018-12-08T12:17:53.056Z,97638.49
2018-12-08T12:20:22.265Z,97640.31
2018-12-08T12:22:51.395Z,97629.78
2018-12-08T12:25:27.471Z,97642.41
2018-12-08T12:27:57.447Z,97640.42
2018-12-08T12:30:26.764Z,97647.49
2018-12-08T12:32:55.888Z,97637.46
2018-12-08T12:35:25.499Z,97648.31
2018-12-08T12:37:54.740Z,97652.16
2018-12-08T12:40:23.859Z,97653.19
2018-12-08T12:42:53.016Z,97646.59
2018-12-08T12:45:22.233Z,97649.13
2018-12-08T12:47:51.843Z,97660.23
2018-12-08T12:50:21.129Z,97647.63
2018-12-08T12:52:50.296Z,97635.06
2018-12-08T12:55:19.443Z,97654.58
2018-12-08T12:57:48.935Z,97641.22
2018-12-08T13:00:18.145Z,97642.84
2018-12-08T13:02:47.253Z,97640.33
2018-12-08T13:05:16.367Z,97636.33
2018-12-08T13:07:45.600Z,97631.27
2018-12-08T13:10:14.732Z,97630.55
2018-12-08T13:12:44.215Z,97639.39
2018-12-08T13:15:13.465Z,97630.80
2018-12-08T13:17:42.844Z,97636.03
2018-12-08T13:20:11.981Z,97646.84
2018-12-08T13:22:41.359Z,97644.55
2018-12-08T13:25:27.487Z,97650.53
2018-12-08T13:27:56.622Z,97647.21
2018-12-08T13:30:25.813Z,97648.11
2018-12-08T13:32:56.361Z,97641.28
2018-12-08T13:35:41.375Z,97640.03
2018-12-08T13:38:10.763Z,97643.98
2018-12-08T13:40:39.956Z,97646.82
2018-12-08T13:43:09.119Z,97648.44
2018-12-08T13:45:38.243Z,97645.44
2018-12-08T13:48:07.508Z,97643.85
2018-12-08T13:50:37.089Z,97638.87
2018-12-08T13:53:06.237Z,97648.38
2018-12-08T13:55:35.356Z,97638.44
2018-12-08T13:58:05.237Z,97637.78
2018-12-08T14:00:37.072Z,97646.13
2018-12-08T14:03:06.332Z,97643.81
2018-12-08T14:05:35.759Z,97656.48
2018-12-08T14:08:05.671Z,97655.07
2018-12-08T14:10:34.942Z,97653.34
2018-12-08T14:13:04.225Z,97651.30
2018-12-08T14:15:33.804Z,97656.23
2018-12-08T14:18:03.865Z,97660.30
2018-12-08T14:20:34.733Z,97661.95
2018-12-08T14:23:04.343Z,97655.88
2018-12-08T14:25:33.504Z,97660.52
2018-12-08T14:28:03.695Z,97656.98
2018-12-08T14:30:32.921Z,97666.67
2018-12-08T14:33:02.991Z,97667.44
2018-12-08T14:35:32.379Z,97675.06
2018-12-08T14:38:02.141Z,97673.44
2018-12-08T14:40:31.378Z,97670.84
2018-12-08T14:43:00.528Z,97679.06
2018-12-08T14:45:29.812Z,97677.52
2018-12-08T14:47:58.972Z,97678.64
2018-12-08T14:50:28.147Z,97690.80
2018-12-08T14:52:57.276Z,97691.77
2018-12-08T14:55:26.553Z,97702.53
2018-12-08T14:57:55.896Z,97695.28
2018-12-08T15:00:25.250Z,97694.61
2018-12-08T15:02:54.841Z,97697.20
2018-12-08T15:05:24.119Z,97692.34
2018-12-08T15:07:53.321Z,97688.05
2018-12-08T15:10:22.461Z,97685.80
2018-12-08T15:12:51.676Z,97685.23
2018-12-08T15:15:21.212Z,97682.30
2018-12-08T15:17:50.824Z,97682.14
2018-12-08T15:20:20.024Z,97671.83
2018-12-08T15:22:49.269Z,97662.81
2018-12-08T15:25:18.373Z,97655.02
2018-12-08T15:27:47.532Z,97654.80
2018-12-08T15:30:17.289Z,97649.47
2018-12-08T15:32:46.509Z,97649.60
2018-12-08T15:35:15.737Z,97638.91
2018-12-08T15:37:45.176Z,97636.09
2018-12-08T15:40:14.553Z,97636.68
2018-12-08T15:42:46.244Z,97641.39
2018-12-08T15:45:15.530Z,97644.97
2018-12-08T15:47:44.961Z,97634.69
2018-12-08T15:50:14.188Z,97631.37
2018-12-08T15:52:43.611Z,97632.56
2018-12-08T15:55:13.168Z,97635.47
2018-12-08T15:57:42.393Z,97627.03
2018-12-08T16:00:13.929Z,97627.71
2018-12-08T16:02:43.869Z,97620.70
2018-12-08T16:05:13.159Z,97620.03
2018-12-08T16:07:42.459Z,97624.42
2018-12-08T16:10:11.832Z,97614.88
2018-12-08T16:12:41.094Z,97618.36
2018-12-08T16:15:10.749Z,97614.66
2018-12-08T16:17:39.900Z,97616.73
2018-12-08T16:20:12.861Z,97611.16
2018-12-08T16:22:42.236Z,97603.42
2018-12-08T16:25:11.385Z,97609.70
2018-12-08T16:27:40.591Z,97608.40
2018-12-08T16:30:11.352Z,97599.95
2018-12-08T16:32:40.731Z,97613.72
2018-12-08T16:35:11.055Z,97617.42
2018-12-08T16:37:40.941Z,97619.34
2018-12-08T16:40:10.741Z,97622.04
2018-12-08T16:42:39.996Z,97612.91
2018-12-08T16:45:09.986Z,97613.20
2018-12-08T16:47:39.778Z,97602.48
2018-12-08T16:50:10.585Z,97602.81
2018-12-08T16:52:42.255Z,97593.88
2018-12-08T16:55:11.872Z,97590.58
2018-12-08T16:57:41.371Z,97592.20
2018-12-08T17:00:11.910Z,97580.47
2018-12-08T17:02:41.115Z,97575.25
2018-12-08T17:05:10.788Z,97572.59
2018-12-08T17:07:40.452Z,97562.52
2018-12-08T17:10:09.912Z,97571.05
2018-12-08T17:12:39.056Z,97570.96
2018-12-08T17:15:08.728Z,97567.28
2018-12-08T17:17:37.974Z,97568.56
2018-12-08T17:20:11.265Z,97558.27
2018-12-08T17:22:41.804Z,97546.53
2018-12-08T17:25:10.953Z,97554.81
2018-12-08T17:27:40.184Z,97556.99
2018-12-08T17:30:10.060Z,97558.00
2018-12-08T17:32:40.007Z,97551.61
2018-12-08T17:35:09.764Z,97550.41
2018-12-08T17:37:39.047Z,97536.11
2018-12-08T17:40:09.372Z,97526.11
2018-12-08T17:42:38.569Z,97533.88
2018-12-08T17:45:07.784Z,97521.21
2018-12-08T17:47:37.099Z,97526.11
2018-12-08T17:50:08.444Z,97509.03
2018-12-08T17:52:38.204Z,97511.33
2018-12-08T17:55:07.512Z,97503.37
2018-12-08T17:57:36.619Z,97506.63
2018-12-08T18:00:06.305Z,97489.63
2018-12-08T18:02:35.641Z,97493.84
2018-12-08T18:05:05.499Z,97480.28
2018-12-08T18:07:35.115Z,97484.69
2018-12-08T18:10:05.616Z,97479.91
2018-12-08T18:12:34.838Z,97471.09
2018-12-08T18:15:04.307Z,97460.63
2018-12-08T18:17:33.467Z,97452.53
2018-12-08T18:20:03.359Z,97441.98
2018-12-08T18:22:32.692Z,97448.91
2018-12-08T18:25:02.397Z,97460.17
2018-12-08T18:27:31.624Z,97453.66
2018-12-08T18:30:02.222Z,97445.80
2018-12-08T18:32:31.755Z,97447.07
2018-12-08T18:35:00.981Z,97447.52
2018-12-08T18:37:30.264Z,97429.23
2018-12-08T18:39:59.464Z,97438.41
2018-12-08T18:42:28.584Z,97444.66
2018-12-08T18:44:57.696Z,97407.84
2018-12-08T18:47:27.634Z,97400.12
2018-12-08T18:49:56.724Z,97392.60
2018-12-08T18:52:26.107Z,97380.84
2018-12-08T18:54:55.314Z,97373.37
2018-12-08T18:57:24.428Z,97387.34
2018-12-08T18:59:53.561Z,97390.67
2018-12-08T19:02:22.688Z,97399.20
2018-12-08T19:04:51.807Z,97401.20
2018-12-08T19:07:20.921Z,97399.46
2018-12-08T19:09:50.125Z,97380.81
2018-12-08T19:12:19.405Z,97368.42
2018-12-08T19:14:49.360Z,97359.44
2018-12-08T19:17:18.544Z,97349.52
2018-12-08T19:19:47.736Z,97356.05
2018-12-08T19:22:16.991Z,97348.17
2018-12-08T19:24:46.527Z,97348.34
2018-12-08T19:27:15.704Z,97342.94
2018-12-08T19:29:44.856Z,97343.77
2018-12-08T19:32:14.045Z,97334.08
2018-12-08T19:34:43.742Z,97328.58
2018-12-08T19:37:13.508Z,97319.95
2018-12-08T19:39:42.641Z,97311.09
2018-12-08T19:42:11.772Z,97321.48
2018-12-08T19:44:40.900Z,97307.25
2018-12-08T19:47:09.991Z,97311.22
2018-12-08T19:49:39.215Z,97308.80
2018-12-08T19:52:08.395Z,97305.90
2018-12-08T19:54:38.027Z,97303.25
2018-12-08T19:57:07.240Z,97296.63
2018-12-08T19:59:36.376Z,97293.26
2018-12-08T20:02:06.172Z,97297.38
2018-12-08T20:04:35.300Z,97291.23
2018-12-08T20:07:04.500Z,97280.17
2018-12-08T20:09:34.151Z,97281.75
2018-12-08T20:12:03.365Z,97283.70
2018-12-08T20:14:32.592Z,97282.43
2018-12-08T20:17:03.211Z,97279.41
2018-12-08T20:19:32.924Z,97284.89
2018-12-08T20:22:02.103Z,97271.62
2018-12-08T20:24:31.308Z,97256.50
2018-12-08T20:27:00.574Z,97251.17
2018-12-08T20:29:31.082Z,97257.07
2018-12-08T20:32:00.344Z,97257.87
2018-12-08T20:34:32.908Z,97239.98
2018-12-08T20:37:02.559Z,97238.84
2018-12-08T20:39:32.074Z,97218.84
2018-12-08T20:42:01.441Z,97224.39
2018-12-08T20:44:30.708Z,97212.36
2018-12-08T20:47:00.284Z,97192.62
2018-12-08T20:49:34.520Z,97203.84
2018-12-08T20:52:03.653Z,97202.47
2018-12-08T20:54:32.786Z,97191.97
2018-12-08T20:57:02.085Z,97197.11
2018-12-08T20:59:31.469Z,97189.95
2018-12-08T21:02:00.753Z,97188.28
2018-12-08T21:04:29.916Z,97171.53
2018-12-08T21:06:59.592Z,97173.64
2018-12-08T21:09:29.002Z,97168.34
2018-12-08T21:11:58.127Z,97158.59
2018-12-08T21:14:27.268Z,97151.00
2018-12-08T21:16:57.344Z,97143.72
2018-12-08T21:19:27.389Z,97130.95
2018-12-08T21:21:56.670Z,97130.53
2018-12-08T21:24:25.892Z,97118.78
2018-12-08T21:26:55.164Z,97125.69
2018-12-08T21:29:24.707Z,97115.20
2018-12-08T21:31:54.333Z,97103.03
2018-12-08T21:34:24.788Z,97100.61
2018-12-08T21:36:53.935Z,97094.50
2018-12-08T21:39:23.053Z,97091.79
2018-12-08T21:41:52.703Z,97083.03
2018-12-08T21:44:21.936Z,97089.19
2018-12-08T21:46:54.108Z,97084.05
2018-12-08T21:49:23.360Z,97068.06
2018-12-08T21:51:52.499Z,97066.50
2018-12-08T21:54:21.806Z,97064.36
2018-12-08T21:56:51.101Z,97058.31
2018-12-08T21:59:20.339Z,97055.11
2018-12-08T22:01:49.740Z,97053.04
2018-12-08T22:04:19.012Z,97049.59
2018-12-08T22:06:48.210Z,97051.26
2018-12-08T22:09:17.323Z,97048.62
2018-12-08T22:11:46.465Z,97049.00
2018-12-08T22:14:15.987Z,97027.83
2018-12-08T22:16:46.610Z,97014.11
2018-12-08T22:19:15.771Z,96988.64
2018-12-08T22:21:44.952Z,96978.68
2018-12-08T22:24:14.102Z,96981.45
2018-12-08T22:26:43.308Z,96987.01
2018-12-08T22:29:13.101Z,96989.86
2018-12-08T22:31:43.873Z,96989.09
2018-12-08T22:34:13.625Z,96967.79
2018-12-08T22:36:42.860Z,96971.30
2018-12-08T22:39:11.973Z,96964.23
2018-12-08T22:41:41.200Z,96946.11
2018-12-08T22:44:10.886Z,96947.39
2018-12-08T22:46:40.168Z,96941.25
2018-12-08T22:49:10.821Z,96928.75
2018-12-08T22:51:39.968Z,96923.78
2018-12-08T22:54:10.507Z,96920.08
2018-12-08T22:56:39.639Z,96922.00
2018-12-08T22:59:08.855Z,96905.72
2018-12-08T23:01:38.024Z,96896.56
2018-12-08T23:04:08.004Z,96887.75
2018-12-08T23:06:37.224Z,96887.72
2018-12-08T23:09:07.656Z,96877.76
2018-12-08T23:11:36.807Z,96883.69
2018-12-08T23:14:06.022Z,96880.16
2018-12-08T23:16:36.220Z,96867.94
2018-12-08T23:19:05.991Z,96870.01
2018-12-08T23:21:35.516Z,96862.72
2018-12-08T23:24:04.812Z,96852.08
2018-12-08T23:26:34.311Z,96838.77
2018-12-08T23:29:03.745Z,96822.72
2018-12-08T23:31:33.048Z,96810.31
2018-12-08T23:34:02.243Z,96803.20
2018-12-08T23:36:31.608Z,96787.03
2018-12-08T23:39:01.155Z,96792.35
2018-12-08T23:41:30.753Z,96782.20
2018-12-08T23:44:04.088Z,96793.97
2018-12-08T23:46:33.752Z,96787.83
2018-12-08T23:49:10.934Z,96785.51
2018-12-08T23:51:34.496Z,96791.05
2018-12-08T23:54:03.672Z,96785.10
2018-12-08T23:56:33.348Z,96783.75
2018-12-08T23:59:02.595Z,96780.58
